createdAt,value
2022-10-11T00:04:57.754Z,11.13
2022-10-11T00:10:00.876Z,11.12
2022-10-11T00:15:07.008Z,11.11
2022-10-11T00:20:11.576Z,11.09
2022-10-11T00:25:14.615Z,11.07
2022-10-11T00:30:17.795Z,11.05
2022-10-11T00:35:20.817Z,11.06
2022-10-11T00:40:24.005Z,11.10
2022-10-11T00:45:27.019Z,11.12
2022-10-11T00:50:36.549Z,11.08
2022-10-11T00:55:54.519Z,11.02
2022-10-11T01:00:58.560Z,10.95
2022-10-11T01:06:03.672Z,10.89
2022-10-11T01:11:12.225Z,10.82
2022-10-11T01:16:42.869Z,10.79
2022-10-11T01:21:49.889Z,10.79
2022-10-11T01:27:14.370Z,10.74
2022-10-11T01:32:23.208Z,10.68
2022-10-11T01:37:38.017Z,10.65
2022-10-11T01:42:43.134Z,10.63
2022-10-11T01:47:46.679Z,10.59
2022-10-11T01:52:51.433Z,10.56
2022-10-11T01:58:38.055Z,10.52
2022-10-11T02:03:59.486Z,10.44
2022-10-11T02:09:24.506Z,10.30
2022-10-11T02:14:36.828Z,10.15
2022-10-11T02:19:47.315Z,10.03
2022-10-11T02:24:55.606Z,9.94
2022-10-11T02:30:02.930Z,9.87
2022-10-11T02:35:07.360Z,9.85
2022-10-11T02:40:20.989Z,9.85
2022-10-11T02:45:36.165Z,9.79
2022-10-11T02:50:41.170Z,9.73
2022-10-11T02:55:44.209Z,9.66
2022-10-11T03:00:48.119Z,9.58
2022-10-11T03:05:51.124Z,9.57
2022-10-11T03:10:54.518Z,9.59
2022-10-11T03:16:03.172Z,9.64
2022-10-11T03:21:06.875Z,9.72
2022-10-11T03:26:09.879Z,9.75
2022-10-11T03:31:12.878Z,9.72
2022-10-11T03:36:17.075Z,9.69
2022-10-11T03:41:20.321Z,9.72
2022-10-11T03:46:23.447Z,9.81
2022-10-11T03:51:26.533Z,9.94
2022-10-11T03:56:29.639Z,10.03
2022-10-11T04:01:37.882Z,10.06
2022-10-11T04:06:41.199Z,10.08
2022-10-11T04:11:44.248Z,10.11
2022-10-11T04:16:47.301Z,10.13
2022-10-11T04:21:50.392Z,10.18
2022-10-11T04:26:53.499Z,10.24
2022-10-11T04:31:56.504Z,10.23
2022-10-11T04:36:59.547Z,10.18
2022-10-11T04:42:02.611Z,10.11
2022-10-11T04:47:05.754Z,10.01
2022-10-11T04:52:08.926Z,10.00
2022-10-11T04:57:11.961Z,10.05
2022-10-11T05:02:15.014Z,10.12
2022-10-11T05:07:18.162Z,10.12
2022-10-11T05:12:21.146Z,10.15
2022-10-11T05:17:24.257Z,10.15
2022-10-11T05:22:27.462Z,10.17
2022-10-11T05:27:30.675Z,10.23
2022-10-11T05:32:34.288Z,10.26
2022-10-11T05:37:37.395Z,10.27
2022-10-11T05:42:41.012Z,10.23
2022-10-11T05:47:44.221Z,10.22
2022-10-11T05:52:47.268Z,10.25
2022-10-11T05:57:57.485Z,10.26
2022-10-11T06:03:00.607Z,10.26
2022-10-11T06:08:06.278Z,10.29
2022-10-11T06:13:09.899Z,10.34
2022-10-11T06:18:13.001Z,10.39
2022-10-11T06:23:15.998Z,10.35
2022-10-11T06:28:19.076Z,10.32
2022-10-11T06:33:22.934Z,10.37
2022-10-11T06:38:27.064Z,10.47
2022-10-11T06:43:30.166Z,10.72
2022-10-11T06:48:33.504Z,10.89
2022-10-11T06:53:37.003Z,10.85
2022-10-11T06:58:40.762Z,10.86
2022-10-11T07:03:44.132Z,10.99
2022-10-11T07:08:49.084Z,11.14
2022-10-11T07:14:02.093Z,11.28
2022-10-11T07:19:07.240Z,11.49
2022-10-11T07:24:10.371Z,11.64
2022-10-11T07:29:13.477Z,11.81
2022-10-11T07:34:16.688Z,11.98
2022-10-11T07:39:19.794Z,12.09
2022-10-11T07:44:22.819Z,12.03
2022-10-11T07:49:26.006Z,12.06
2022-10-11T07:54:29.118Z,12.18
2022-10-11T07:59:32.224Z,12.28
2022-10-11T08:04:35.326Z,12.39
2022-10-11T08:09:38.431Z,12.56
2022-10-11T08:14:41.947Z,12.85
2022-10-11T08:19:44.949Z,12.95
2022-10-11T08:24:49.999Z,12.95
2022-10-11T08:29:53.002Z,12.97
2022-10-11T08:34:56.107Z,13.07
2022-10-11T08:39:59.539Z,13.06
2022-10-11T08:45:18.908Z,12.95
2022-10-11T08:50:24.371Z,12.94
2022-10-11T08:55:52.574Z,13.21
2022-10-11T09:00:58.492Z,13.49
2022-10-11T09:06:32.081Z,13.46
2022-10-11T09:12:00.973Z,13.51
2022-10-11T09:17:36.076Z,13.49
2022-10-11T09:23:04.351Z,13.47
2022-10-11T09:28:35.724Z,13.73
2022-10-11T09:33:50.110Z,13.86
2022-10-11T09:38:56.854Z,13.66
2022-10-11T09:43:59.966Z,13.88
2022-10-11T09:49:10.038Z,14.20
2022-10-11T09:54:13.239Z,14.21
2022-10-11T09:59:33.470Z,14.03
2022-10-11T10:05:02.015Z,14.27
2022-10-11T10:10:42.631Z,14.19
2022-10-11T10:15:49.257Z,14.31
2022-10-11T10:20:57.155Z,14.46
2022-10-11T10:26:18.883Z,14.41
2022-10-11T10:31:26.778Z,14.13
2022-10-11T10:36:45.380Z,14.35
2022-10-11T10:41:48.574Z,14.39
2022-10-11T10:47:11.043Z,14.35
2022-10-11T10:52:20.008Z,14.56
2022-10-11T10:57:36.171Z,14.58
2022-10-11T11:02:58.948Z,14.32
2022-10-11T11:08:30.124Z,14.59
2022-10-11T11:13:33.029Z,14.97
2022-10-11T11:19:03.600Z,15.37
2022-10-11T11:24:52.968Z,15.61
2022-10-11T11:30:11.910Z,15.63
2022-10-11T11:35:41.469Z,14.91
2022-10-11T11:40:52.979Z,14.39
2022-10-11T11:46:06.708Z,14.58
2022-10-11T11:51:30.672Z,14.95
2022-10-11T11:57:12.802Z,14.97
2022-10-11T12:03:02.138Z,15.30
2022-10-11T12:08:27.630Z,15.25
2022-10-11T12:13:37.838Z,14.91
2022-10-11T12:19:14.636Z,14.85
2022-10-11T12:24:20.624Z,15.29
2022-10-11T12:29:49.667Z,15.24
2022-10-11T12:35:32.225Z,15.13
2022-10-11T12:40:47.319Z,15.19
2022-10-11T12:45:51.309Z,15.20
2022-10-11T12:51:21.681Z,14.97
2022-10-11T12:57:12.066Z,14.86
2022-10-11T13:02:40.529Z,14.93
2022-10-11T13:07:43.975Z,15.12
2022-10-11T13:12:49.201Z,15.18
2022-10-11T13:18:00.423Z,15.10
2022-10-11T13:23:03.509Z,14.91
2022-10-11T13:28:10.113Z,14.57
2022-10-11T13:33:32.341Z,14.45
2022-10-11T13:38:37.258Z,14.79
2022-10-11T13:43:41.139Z,15.11
2022-10-11T13:48:44.131Z,15.31
2022-10-11T13:54:13.809Z,14.97
2022-10-11T13:59:25.735Z,14.79
2022-10-11T14:04:40.857Z,14.71
2022-10-11T14:09:47.238Z,14.55
2022-10-11T14:14:50.343Z,14.44
2022-10-11T14:20:24.175Z,14.38
2022-10-11T14:25:27.786Z,14.60
2022-10-11T14:30:31.890Z,14.74
2022-10-11T14:35:35.282Z,14.63
2022-10-11T14:40:38.329Z,14.43
2022-10-11T14:45:41.368Z,14.26
2022-10-11T14:50:55.395Z,14.14
2022-10-11T14:55:58.501Z,13.97
2022-10-11T15:01:01.611Z,13.82
2022-10-11T15:06:06.928Z,13.64
2022-10-11T15:11:13.616Z,13.52
2022-10-11T15:16:20.800Z,13.41
2022-10-11T15:21:27.572Z,13.35
2022-10-11T15:26:31.072Z,13.28
2022-10-11T15:31:34.069Z,13.19
2022-10-11T15:36:37.178Z,13.09
2022-10-11T15:41:40.182Z,12.98
2022-10-11T15:46:44.018Z,12.87
2022-10-11T15:51:47.011Z,12.80
2022-10-11T15:56:50.012Z,12.74
2022-10-11T16:01:53.174Z,12.71
2022-10-11T16:06:56.325Z,12.69
2022-10-11T16:11:59.430Z,12.62
2022-10-11T16:17:04.379Z,12.51
2022-10-11T16:22:07.563Z,12.47
2022-10-11T16:27:13.256Z,12.43
2022-10-11T16:32:19.137Z,12.38
2022-10-11T16:37:22.235Z,12.30
2022-10-11T16:42:26.439Z,12.27
2022-10-11T16:47:29.510Z,12.25
2022-10-11T16:52:32.884Z,12.20
2022-10-11T16:57:38.034Z,12.11
2022-10-11T17:02:41.062Z,12.00
2022-10-11T17:07:44.147Z,11.81
2022-10-11T17:12:50.303Z,11.68
2022-10-11T17:17:56.089Z,11.48
2022-10-11T17:22:59.507Z,11.29
2022-10-11T17:28:02.614Z,11.12
2022-10-11T17:33:06.027Z,10.94
2022-10-11T17:38:09.126Z,10.89
2022-10-11T17:43:12.643Z,10.83
2022-10-11T17:48:15.751Z,10.64
2022-10-11T17:53:18.866Z,10.53
2022-10-11T17:58:22.090Z,10.39
2022-10-11T18:03:25.273Z,10.16
2022-10-11T18:08:28.311Z,10.07
2022-10-11T18:13:31.596Z,10.02
2022-10-11T18:18:35.722Z,9.95
2022-10-11T18:23:39.033Z,9.86
2022-10-11T18:28:43.618Z,9.65
2022-10-11T18:33:47.691Z,9.49
2022-10-11T18:38:56.034Z,9.39
2022-10-11T18:44:03.924Z,9.35
2022-10-11T18:49:07.259Z,9.31
2022-10-11T18:54:15.406Z,9.27
2022-10-11T18:59:21.766Z,9.24
2022-10-11T19:04:25.083Z,9.16
2022-10-11T19:09:29.051Z,9.05
2022-10-11T19:14:32.029Z,8.96
2022-10-11T19:19:35.418Z,8.84
2022-10-11T19:24:38.646Z,8.74
2022-10-11T19:29:41.737Z,8.72
2022-10-11T19:34:44.748Z,8.77
2022-10-11T19:39:47.843Z,8.79
2022-10-11T19:44:50.851Z,8.68
2022-10-11T19:49:53.851Z,8.49
2022-10-11T19:54:56.872Z,8.35
2022-10-11T19:59:59.979Z,8.25
2022-10-11T20:05:03.208Z,8.19
2022-10-11T20:10:06.377Z,8.09
2022-10-11T20:15:10.297Z,7.97
2022-10-11T20:20:13.611Z,7.85
2022-10-11T20:25:16.922Z,7.69
2022-10-11T20:30:19.929Z,7.58
2022-10-11T20:35:22.951Z,7.47
2022-10-11T20:40:26.035Z,7.43
2022-10-11T20:45:29.053Z,7.45
2022-10-11T20:50:32.042Z,7.53
2022-10-11T20:55:35.045Z,7.53
2022-10-11T21:00:42.763Z,7.45
2022-10-11T21:05:46.076Z,7.40
2022-10-11T21:10:56.346Z,7.31
2022-10-11T21:16:14.696Z,7.20
2022-10-11T21:21:18.242Z,7.16
2022-10-11T21:26:22.358Z,7.24
2022-10-11T21:31:28.428Z,7.33
2022-10-11T21:36:34.609Z,7.49
2022-10-11T21:41:38.124Z,7.58
2022-10-11T21:47:05.021Z,7.58
2022-10-11T21:52:05.265Z,7.54
2022-10-11T21:57:08.341Z,7.45
2022-10-11T22:02:11.477Z,7.34
2022-10-11T22:07:14.649Z,7.32
2022-10-11T22:12:17.759Z,7.32
2022-10-11T22:17:20.861Z,7.33
2022-10-11T22:22:23.964Z,7.35
2022-10-11T22:27:26.997Z,7.33
2022-10-11T22:32:30.073Z,7.31
2022-10-11T22:37:34.564Z,7.31
2022-10-11T22:42:37.723Z,7.38
2022-10-11T22:47:40.827Z,7.46
2022-10-11T22:52:43.866Z,7.52
2022-10-11T22:57:47.040Z,7.59
2022-10-11T23:02:50.060Z,7.64
2022-10-11T23:07:53.415Z,7.63
2022-10-11T23:12:56.977Z,7.64
2022-10-11T23:18:00.098Z,7.70
2022-10-11T23:23:03.183Z,7.72
2022-10-11T23:28:06.522Z,7.70
2022-10-11T23:33:09.499Z,7.61
2022-10-11T23:38:12.415Z,7.52
2022-10-11T23:43:15.608Z,7.48
2022-10-11T23:48:18.618Z,7.41
2022-10-11T23:53:21.627Z,7.38
2022-10-11T23:58:24.621Z,7.42
